sensor_id;sensor_type;location;lat;lon;timestamp;temperature;humidity
44990;DHT22;30723;51.206;3.326;2022-08-23T00:02:07;20.20;99.90
44990;DHT22;30723;51.206;3.326;2022-08-23T00:04:38;20.20;99.90
44990;DHT22;30723;51.206;3.326;2022-08-23T00:07:07;20.10;99.90
44990;DHT22;30723;51.206;3.326;2022-08-23T00:09:34;20.00;99.90
44990;DHT22;30723;51.206;3.326;2022-08-23T00:12:11;20.00;99.90
44990;DHT22;30723;51.206;3.326;2022-08-23T00:14:42;20.00;99.90
44990;DHT22;30723;51.206;3.326;2022-08-23T00:17:10;20.00;99.90
44990;DHT22;30723;51.206;3.326;2022-08-23T00:19:37;19.90;99.90
44990;DHT22;30723;51.206;3.326;2022-08-23T00:22:05;19.90;99.90
44990;DHT22;30723;51.206;3.326;2022-08-23T00:24:33;19.80;99.90
44990;DHT22;30723;51.206;3.326;2022-08-23T00:27:12;19.80;99.90
44990;DHT22;30723;51.206;3.326;2022-08-23T00:29:51;19.80;99.90
44990;DHT22;30723;51.206;3.326;2022-08-23T00:32:41;19.80;99.90
44990;DHT22;30723;51.206;3.326;2022-08-23T00:35:11;19.70;99.90
44990;DHT22;30723;51.206;3.326;2022-08-23T00:37:38;19.70;99.90
44990;DHT22;30723;51.206;3.326;2022-08-23T00:40:08;19.70;99.90
44990;DHT22;30723;51.206;3.326;2022-08-23T00:43:08;19.60;99.90
44990;DHT22;30723;51.206;3.326;2022-08-23T00:49:05;19.50;99.90
44990;DHT22;30723;51.206;3.326;2022-08-23T00:51:45;19.50;99.90
44990;DHT22;30723;51.206;3.326;2022-08-23T00:54:12;19.50;99.90
44990;DHT22;30723;51.206;3.326;2022-08-23T00:56:40;19.50;99.90
44990;DHT22;30723;51.206;3.326;2022-08-23T00:59:07;19.50;99.90
44990;DHT22;30723;51.206;3.326;2022-08-23T01:01:33;19.50;99.90
44990;DHT22;30723;51.206;3.326;2022-08-23T01:04:01;19.40;99.90
44990;DHT22;30723;51.206;3.326;2022-08-23T01:06:44;19.40;99.90
44990;DHT22;30723;51.206;3.326;2022-08-23T01:09:14;19.30;99.90
44990;DHT22;30723;51.206;3.326;2022-08-23T01:12:08;19.20;99.90
44990;DHT22;30723;51.206;3.326;2022-08-23T01:14:50;19.00;99.90
44990;DHT22;30723;51.206;3.326;2022-08-23T01:17:40;18.90;99.90
44990;DHT22;30723;51.206;3.326;2022-08-23T01:20:12;19.00;99.90
44990;DHT22;30723;51.206;3.326;2022-08-23T01:25:47;19.10;99.90
44990;DHT22;30723;51.206;3.326;2022-08-23T01:28:14;19.00;99.90
44990;DHT22;30723;51.206;3.326;2022-08-23T01:30:43;18.90;99.90
44990;DHT22;30723;51.206;3.326;2022-08-23T01:33:10;18.80;99.90
44990;DHT22;30723;51.206;3.326;2022-08-23T01:35:44;18.80;99.90
44990;DHT22;30723;51.206;3.326;2022-08-23T01:38:13;18.90;99.90
44990;DHT22;30723;51.206;3.326;2022-08-23T01:40:41;19.00;99.90
44990;DHT22;30723;51.206;3.326;2022-08-23T01:43:08;19.00;99.90
44990;DHT22;30723;51.206;3.326;2022-08-23T01:45:35;18.90;99.90
44990;DHT22;30723;51.206;3.326;2022-08-23T01:48:03;18.90;99.90
44990;DHT22;30723;51.206;3.326;2022-08-23T01:50:30;18.80;99.90
44990;DHT22;30723;51.206;3.326;2022-08-23T01:52:57;18.70;99.90
44990;DHT22;30723;51.206;3.326;2022-08-23T01:55:25;18.60;99.90
44990;DHT22;30723;51.206;3.326;2022-08-23T01:57:54;18.70;99.90
44990;DHT22;30723;51.206;3.326;2022-08-23T02:00:25;18.80;99.90
44990;DHT22;30723;51.206;3.326;2022-08-23T02:02:52;18.80;99.90
44990;DHT22;30723;51.206;3.326;2022-08-23T02:05:19;18.80;99.90
44990;DHT22;30723;51.206;3.326;2022-08-23T02:07:46;18.80;99.90
44990;DHT22;30723;51.206;3.326;2022-08-23T02:10:13;18.80;99.90
44990;DHT22;30723;51.206;3.326;2022-08-23T02:12:40;18.70;99.90
44990;DHT22;30723;51.206;3.326;2022-08-23T02:15:08;18.70;99.90
44990;DHT22;30723;51.206;3.326;2022-08-23T02:17:35;18.60;99.90
44990;DHT22;30723;51.206;3.326;2022-08-23T02:20:03;18.50;99.90
44990;DHT22;30723;51.206;3.326;2022-08-23T02:22:31;18.50;99.90
44990;DHT22;30723;51.206;3.326;2022-08-23T02:24:57;18.50;99.90
44990;DHT22;30723;51.206;3.326;2022-08-23T02:27:24;18.60;99.90
44990;DHT22;30723;51.206;3.326;2022-08-23T02:29:51;18.60;99.90
44990;DHT22;30723;51.206;3.326;2022-08-23T02:32:19;18.60;99.90
44990;DHT22;30723;51.206;3.326;2022-08-23T02:34:46;18.70;99.90
44990;DHT22;30723;51.206;3.326;2022-08-23T02:37:14;18.70;99.90
44990;DHT22;30723;51.206;3.326;2022-08-23T02:39:42;18.80;99.90
44990;DHT22;30723;51.206;3.326;2022-08-23T02:42:08;18.90;99.90
44990;DHT22;30723;51.206;3.326;2022-08-23T02:44:36;18.90;99.90
44990;DHT22;30723;51.206;3.326;2022-08-23T02:47:04;18.90;99.90
44990;DHT22;30723;51.206;3.326;2022-08-23T02:49:33;19.00;99.90
44990;DHT22;30723;51.206;3.326;2022-08-23T02:52:00;19.00;99.90
44990;DHT22;30723;51.206;3.326;2022-08-23T02:54:26;19.10;99.90
44990;DHT22;30723;51.206;3.326;2022-08-23T02:56:52;19.20;99.90
44990;DHT22;30723;51.206;3.326;2022-08-23T02:59:19;19.30;99.90
44990;DHT22;30723;51.206;3.326;2022-08-23T03:01:46;19.30;99.90
44990;DHT22;30723;51.206;3.326;2022-08-23T03:04:13;19.30;99.90
44990;DHT22;30723;51.206;3.326;2022-08-23T03:06:39;19.40;99.90
44990;DHT22;30723;51.206;3.326;2022-08-23T03:09:08;19.50;99.90
44990;DHT22;30723;51.206;3.326;2022-08-23T03:11:35;19.50;99.90
44990;DHT22;30723;51.206;3.326;2022-08-23T03:14:02;19.50;99.90
44990;DHT22;30723;51.206;3.326;2022-08-23T03:16:29;19.60;99.90
44990;DHT22;30723;51.206;3.326;2022-08-23T03:18:56;19.50;99.90
44990;DHT22;30723;51.206;3.326;2022-08-23T03:21:23;19.40;99.90
44990;DHT22;30723;51.206;3.326;2022-08-23T03:23:50;19.50;99.90
44990;DHT22;30723;51.206;3.326;2022-08-23T03:26:17;19.50;99.90
44990;DHT22;30723;51.206;3.326;2022-08-23T03:28:46;19.50;99.90
44990;DHT22;30723;51.206;3.326;2022-08-23T03:31:14;19.50;99.90
44990;DHT22;30723;51.206;3.326;2022-08-23T03:33:41;19.60;99.90
44990;DHT22;30723;51.206;3.326;2022-08-23T03:36:10;19.60;99.90
44990;DHT22;30723;51.206;3.326;2022-08-23T03:38:38;19.60;99.90
44990;DHT22;30723;51.206;3.326;2022-08-23T03:41:06;19.60;99.90
44990;DHT22;30723;51.206;3.326;2022-08-23T03:43:34;19.50;99.90
44990;DHT22;30723;51.206;3.326;2022-08-23T03:46:01;19.50;99.90
44990;DHT22;30723;51.206;3.326;2022-08-23T03:48:28;19.50;99.90
44990;DHT22;30723;51.206;3.326;2022-08-23T03:50:55;19.50;99.90
44990;DHT22;30723;51.206;3.326;2022-08-23T03:53:21;19.50;99.90
44990;DHT22;30723;51.206;3.326;2022-08-23T03:55:50;19.40;99.90
44990;DHT22;30723;51.206;3.326;2022-08-23T03:58:19;19.40;99.90
44990;DHT22;30723;51.206;3.326;2022-08-23T04:00:46;19.40;99.90
44990;DHT22;30723;51.206;3.326;2022-08-23T04:03:13;19.40;99.90
44990;DHT22;30723;51.206;3.326;2022-08-23T04:05:40;19.40;99.90
44990;DHT22;30723;51.206;3.326;2022-08-23T04:08:26;19.40;99.90
44990;DHT22;30723;51.206;3.326;2022-08-23T04:10:53;19.40;99.90
44990;DHT22;30723;51.206;3.326;2022-08-23T04:13:20;19.30;99.90
44990;DHT22;30723;51.206;3.326;2022-08-23T04:15:47;19.30;99.90
44990;DHT22;30723;51.206;3.326;2022-08-23T04:18:15;19.30;99.90
44990;DHT22;30723;51.206;3.326;2022-08-23T04:20:43;19.30;99.90
44990;DHT22;30723;51.206;3.326;2022-08-23T04:23:10;19.30;99.90
44990;DHT22;30723;51.206;3.326;2022-08-23T04:25:36;19.30;99.90
44990;DHT22;30723;51.206;3.326;2022-08-23T04:28:04;19.20;99.90
44990;DHT22;30723;51.206;3.326;2022-08-23T04:30:31;19.30;99.90
44990;DHT22;30723;51.206;3.326;2022-08-23T04:32:59;19.20;99.90
44990;DHT22;30723;51.206;3.326;2022-08-23T04:35:26;19.20;99.90
44990;DHT22;30723;51.206;3.326;2022-08-23T04:37:53;19.20;99.90
44990;DHT22;30723;51.206;3.326;2022-08-23T04:40:20;19.20;99.90
44990;DHT22;30723;51.206;3.326;2022-08-23T04:43:05;19.10;99.90
44990;DHT22;30723;51.206;3.326;2022-08-23T04:45:37;19.10;99.90
44990;DHT22;30723;51.206;3.326;2022-08-23T04:48:06;19.10;99.90
44990;DHT22;30723;51.206;3.326;2022-08-23T04:50:33;19.10;99.90
44990;DHT22;30723;51.206;3.326;2022-08-23T04:53:01;19.10;99.90
44990;DHT22;30723;51.206;3.326;2022-08-23T04:55:28;19.10;99.90
44990;DHT22;30723;51.206;3.326;2022-08-23T04:57:55;19.30;99.90
44990;DHT22;30723;51.206;3.326;2022-08-23T05:00:22;19.30;99.90
44990;DHT22;30723;51.206;3.326;2022-08-23T05:02:48;19.30;99.90
44990;DHT22;30723;51.206;3.326;2022-08-23T05:05:17;19.30;99.90
44990;DHT22;30723;51.206;3.326;2022-08-23T05:07:44;19.30;99.90
44990;DHT22;30723;51.206;3.326;2022-08-23T05:10:12;19.20;99.90
44990;DHT22;30723;51.206;3.326;2022-08-23T05:12:40;19.20;99.90
44990;DHT22;30723;51.206;3.326;2022-08-23T05:15:08;19.20;99.90
44990;DHT22;30723;51.206;3.326;2022-08-23T05:17:35;19.10;99.90
44990;DHT22;30723;51.206;3.326;2022-08-23T05:20:04;19.10;99.90
44990;DHT22;30723;51.206;3.326;2022-08-23T05:22:34;19.10;99.90
44990;DHT22;30723;51.206;3.326;2022-08-23T05:25:01;19.10;99.90
44990;DHT22;30723;51.206;3.326;2022-08-23T05:27:28;19.20;99.90
44990;DHT22;30723;51.206;3.326;2022-08-23T05:29:55;19.30;99.90
44990;DHT22;30723;51.206;3.326;2022-08-23T05:32:22;19.30;99.90
44990;DHT22;30723;51.206;3.326;2022-08-23T05:34:49;19.40;99.90
44990;DHT22;30723;51.206;3.326;2022-08-23T05:37:17;19.40;99.90
44990;DHT22;30723;51.206;3.326;2022-08-23T05:39:43;19.50;99.90
44990;DHT22;30723;51.206;3.326;2022-08-23T05:42:14;19.60;99.90
44990;DHT22;30723;51.206;3.326;2022-08-23T05:44:40;19.70;99.90
44990;DHT22;30723;51.206;3.326;2022-08-23T05:47:10;19.80;99.90
44990;DHT22;30723;51.206;3.326;2022-08-23T05:49:37;19.80;99.90
44990;DHT22;30723;51.206;3.326;2022-08-23T05:52:06;19.90;99.90
44990;DHT22;30723;51.206;3.326;2022-08-23T05:54:32;20.00;99.90
44990;DHT22;30723;51.206;3.326;2022-08-23T05:56:59;20.10;99.90
44990;DHT22;30723;51.206;3.326;2022-08-23T05:59:25;20.10;99.90
44990;DHT22;30723;51.206;3.326;2022-08-23T06:01:52;20.20;99.90
44990;DHT22;30723;51.206;3.326;2022-08-23T06:04:20;20.20;99.90
44990;DHT22;30723;51.206;3.326;2022-08-23T06:06:47;20.30;99.90
44990;DHT22;30723;51.206;3.326;2022-08-23T06:09:16;20.60;99.90
44990;DHT22;30723;51.206;3.326;2022-08-23T06:11:47;20.80;99.90
44990;DHT22;30723;51.206;3.326;2022-08-23T06:14:13;21.00;99.90
44990;DHT22;30723;51.206;3.326;2022-08-23T06:16:43;21.20;99.90
44990;DHT22;30723;51.206;3.326;2022-08-23T06:19:10;21.50;99.90
44990;DHT22;30723;51.206;3.326;2022-08-23T06:21:38;21.80;99.90
44990;DHT22;30723;51.206;3.326;2022-08-23T06:24:05;22.20;99.90
44990;DHT22;30723;51.206;3.326;2022-08-23T06:26:35;22.80;99.90
44990;DHT22;30723;51.206;3.326;2022-08-23T06:29:22;23.10;99.90
44990;DHT22;30723;51.206;3.326;2022-08-23T06:31:51;23.60;99.90
44990;DHT22;30723;51.206;3.326;2022-08-23T06:34:32;23.90;99.90
44990;DHT22;30723;51.206;3.326;2022-08-23T06:37:02;24.20;99.90
44990;DHT22;30723;51.206;3.326;2022-08-23T06:39:31;24.40;99.90
44990;DHT22;30723;51.206;3.326;2022-08-23T06:42:16;24.80;99.90
44990;DHT22;30723;51.206;3.326;2022-08-23T06:44:43;25.40;99.90
44990;DHT22;30723;51.206;3.326;2022-08-23T06:47:10;25.80;99.90
44990;DHT22;30723;51.206;3.326;2022-08-23T06:49:36;26.30;99.90
44990;DHT22;30723;51.206;3.326;2022-08-23T06:52:04;26.70;99.90
44990;DHT22;30723;51.206;3.326;2022-08-23T06:54:32;26.90;99.90
44990;DHT22;30723;51.206;3.326;2022-08-23T06:57:00;27.20;99.90
44990;DHT22;30723;51.206;3.326;2022-08-23T06:59:28;27.50;99.90
44990;DHT22;30723;51.206;3.326;2022-08-23T07:04:27;28.00;99.90
44990;DHT22;30723;51.206;3.326;2022-08-23T07:06:56;28.40;99.90
44990;DHT22;30723;51.206;3.326;2022-08-23T07:09:23;28.80;99.90
44990;DHT22;30723;51.206;3.326;2022-08-23T07:11:50;28.90;99.90
44990;DHT22;30723;51.206;3.326;2022-08-23T07:14:18;29.30;99.90
44990;DHT22;30723;51.206;3.326;2022-08-23T07:16:48;29.50;99.90
44990;DHT22;30723;51.206;3.326;2022-08-23T07:19:17;29.70;99.90
44990;DHT22;30723;51.206;3.326;2022-08-23T07:21:45;29.90;99.70
44990;DHT22;30723;51.206;3.326;2022-08-23T07:24:12;29.90;98.80
44990;DHT22;30723;51.206;3.326;2022-08-23T07:26:40;30.10;98.30
44990;DHT22;30723;51.206;3.326;2022-08-23T07:29:08;30.30;98.20
44990;DHT22;30723;51.206;3.326;2022-08-23T07:31:42;30.40;97.70
44990;DHT22;30723;51.206;3.326;2022-08-23T07:34:09;30.20;97.80
44990;DHT22;30723;51.206;3.326;2022-08-23T07:36:36;30.30;98.40
44990;DHT22;30723;51.206;3.326;2022-08-23T07:39:05;30.40;98.70
44990;DHT22;30723;51.206;3.326;2022-08-23T07:41:33;30.90;98.30
44990;DHT22;30723;51.206;3.326;2022-08-23T07:44:02;31.30;98.00
44990;DHT22;30723;51.206;3.326;2022-08-23T07:46:30;31.00;98.10
44990;DHT22;30723;51.206;3.326;2022-08-23T07:49:01;30.40;98.50
44990;DHT22;30723;51.206;3.326;2022-08-23T07:51:30;29.30;99.40
44990;DHT22;30723;51.206;3.326;2022-08-23T07:53:57;28.70;99.90
44990;DHT22;30723;51.206;3.326;2022-08-23T07:56:24;29.00;99.90
44990;DHT22;30723;51.206;3.326;2022-08-23T07:58:50;28.80;99.90
44990;DHT22;30723;51.206;3.326;2022-08-23T08:01:25;28.70;99.90
44990;DHT22;30723;51.206;3.326;2022-08-23T08:03:54;28.30;99.90
44990;DHT22;30723;51.206;3.326;2022-08-23T08:06:33;28.50;99.90
44990;DHT22;30723;51.206;3.326;2022-08-23T08:09:00;29.10;99.90
44990;DHT22;30723;51.206;3.326;2022-08-23T08:11:30;29.80;99.90
44990;DHT22;30723;51.206;3.326;2022-08-23T08:13:57;30.00;99.50
44990;DHT22;30723;51.206;3.326;2022-08-23T08:16:44;30.00;98.90
44990;DHT22;30723;51.206;3.326;2022-08-23T08:19:13;29.70;99.20
44990;DHT22;30723;51.206;3.326;2022-08-23T08:21:40;29.60;99.90
44990;DHT22;30723;51.206;3.326;2022-08-23T08:24:09;29.80;99.90
44990;DHT22;30723;51.206;3.326;2022-08-23T08:26:37;30.00;99.90
44990;DHT22;30723;51.206;3.326;2022-08-23T08:29:04;30.10;99.90
44990;DHT22;30723;51.206;3.326;2022-08-23T08:31:32;29.80;99.90
44990;DHT22;30723;51.206;3.326;2022-08-23T08:33:59;29.40;99.90
44990;DHT22;30723;51.206;3.326;2022-08-23T08:36:37;28.90;99.90
44990;DHT22;30723;51.206;3.326;2022-08-23T08:39:09;28.50;99.90
44990;DHT22;30723;51.206;3.326;2022-08-23T08:44:22;27.30;99.90
44990;DHT22;30723;51.206;3.326;2022-08-23T08:46:53;27.00;99.90
44990;DHT22;30723;51.206;3.326;2022-08-23T08:52:25;27.20;99.90
44990;DHT22;30723;51.206;3.326;2022-08-23T08:55:10;27.30;99.90
44990;DHT22;30723;51.206;3.326;2022-08-23T08:57:42;27.20;99.90
44990;DHT22;30723;51.206;3.326;2022-08-23T09:02:41;27.00;99.90
44990;DHT22;30723;51.206;3.326;2022-08-23T09:05:14;26.80;99.90
44990;DHT22;30723;51.206;3.326;2022-08-23T09:08:23;27.10;99.90
44990;DHT22;30723;51.206;3.326;2022-08-23T09:14:15;27.50;99.90
44990;DHT22;30723;51.206;3.326;2022-08-23T09:17:30;27.50;99.90
44990;DHT22;30723;51.206;3.326;2022-08-23T09:19:59;28.00;99.90
44990;DHT22;30723;51.206;3.326;2022-08-23T09:22:42;28.40;99.90
44990;DHT22;30723;51.206;3.326;2022-08-23T09:25:12;28.30;99.90
44990;DHT22;30723;51.206;3.326;2022-08-23T09:27:40;28.30;99.90
44990;DHT22;30723;51.206;3.326;2022-08-23T09:30:12;28.10;99.90
44990;DHT22;30723;51.206;3.326;2022-08-23T09:32:41;28.00;99.90
44990;DHT22;30723;51.206;3.326;2022-08-23T09:35:20;28.60;99.90
44990;DHT22;30723;51.206;3.326;2022-08-23T09:37:58;29.50;99.90
44990;DHT22;30723;51.206;3.326;2022-08-23T09:40:35;30.70;99.90
44990;DHT22;30723;51.206;3.326;2022-08-23T09:43:06;32.20;99.90
44990;DHT22;30723;51.206;3.326;2022-08-23T09:45:39;33.80;99.60
44990;DHT22;30723;51.206;3.326;2022-08-23T09:48:11;34.70;96.20
44990;DHT22;30723;51.206;3.326;2022-08-23T09:50:43;33.90;94.50
44990;DHT22;30723;51.206;3.326;2022-08-23T09:53:15;32.20;96.40
44990;DHT22;30723;51.206;3.326;2022-08-23T09:55:51;31.00;98.90
44990;DHT22;30723;51.206;3.326;2022-08-23T09:58:38;30.20;99.90
44990;DHT22;30723;51.206;3.326;2022-08-23T10:01:13;29.50;99.90
44990;DHT22;30723;51.206;3.326;2022-08-23T10:03:42;30.00;99.90
44990;DHT22;30723;51.206;3.326;2022-08-23T10:06:12;31.50;99.90
44990;DHT22;30723;51.206;3.326;2022-08-23T10:08:53;33.10;98.60
44990;DHT22;30723;51.206;3.326;2022-08-23T10:11:41;34.60;95.20
44990;DHT22;30723;51.206;3.326;2022-08-23T10:14:16;35.30;92.60
44990;DHT22;30723;51.206;3.326;2022-08-23T10:22:05;32.10;95.00
44990;DHT22;30723;51.206;3.326;2022-08-23T10:30:35;29.30;99.90
44990;DHT22;30723;51.206;3.326;2022-08-23T10:39:18;28.50;99.90
44990;DHT22;30723;51.206;3.326;2022-08-23T10:42:27;28.30;99.90
44990;DHT22;30723;51.206;3.326;2022-08-23T10:45:09;28.10;99.90
44990;DHT22;30723;51.206;3.326;2022-08-23T10:50:42;27.80;99.90
44990;DHT22;30723;51.206;3.326;2022-08-23T10:53:15;28.40;99.90
44990;DHT22;30723;51.206;3.326;2022-08-23T10:55:48;28.40;99.90
44990;DHT22;30723;51.206;3.326;2022-08-23T10:58:34;28.20;99.90
44990;DHT22;30723;51.206;3.326;2022-08-23T11:01:02;28.00;99.90
44990;DHT22;30723;51.206;3.326;2022-08-23T11:03:32;27.80;99.90
44990;DHT22;30723;51.206;3.326;2022-08-23T11:06:25;27.80;99.90
44990;DHT22;30723;51.206;3.326;2022-08-23T11:14:36;28.00;99.90
44990;DHT22;30723;51.206;3.326;2022-08-23T11:17:27;28.20;99.90
44990;DHT22;30723;51.206;3.326;2022-08-23T11:20:00;29.50;99.90
44990;DHT22;30723;51.206;3.326;2022-08-23T11:22:27;29.90;99.90
44990;DHT22;30723;51.206;3.326;2022-08-23T11:25:05;30.30;99.90
44990;DHT22;30723;51.206;3.326;2022-08-23T11:34:10;31.00;99.70
44990;DHT22;30723;51.206;3.326;2022-08-23T11:36:38;30.50;99.90
44990;DHT22;30723;51.206;3.326;2022-08-23T11:39:09;30.90;99.90
44990;DHT22;30723;51.206;3.326;2022-08-23T11:44:35;31.30;98.80
44990;DHT22;30723;51.206;3.326;2022-08-23T11:47:06;30.80;98.90
44990;DHT22;30723;51.206;3.326;2022-08-23T11:50:35;31.20;99.30
44990;DHT22;30723;51.206;3.326;2022-08-23T11:53:03;31.70;97.10
44990;DHT22;30723;51.206;3.326;2022-08-23T11:59:08;33.50;93.60
44990;DHT22;30723;51.206;3.326;2022-08-23T12:01:43;33.20;93.30
44990;DHT22;30723;51.206;3.326;2022-08-23T12:04:38;33.40;92.50
44990;DHT22;30723;51.206;3.326;2022-08-23T12:07:08;33.80;91.70
44990;DHT22;30723;51.206;3.326;2022-08-23T12:14:51;34.60;90.60
44990;DHT22;30723;51.206;3.326;2022-08-23T12:19:52;36.10;85.80
44990;DHT22;30723;51.206;3.326;2022-08-23T12:22:26;37.50;82.30
44990;DHT22;30723;51.206;3.326;2022-08-23T12:25:01;37.60;75.90
44990;DHT22;30723;51.206;3.326;2022-08-23T12:33:31;35.80;76.50
44990;DHT22;30723;51.206;3.326;2022-08-23T12:42:43;36.60;72.10
44990;DHT22;30723;51.206;3.326;2022-08-23T12:45:18;36.50;72.10
44990;DHT22;30723;51.206;3.326;2022-08-23T12:48:02;35.60;73.20
44990;DHT22;30723;51.206;3.326;2022-08-23T12:50:37;34.20;76.20
44990;DHT22;30723;51.206;3.326;2022-08-23T12:53:11;33.50;79.30
44990;DHT22;30723;51.206;3.326;2022-08-23T12:55:45;33.50;80.60
44990;DHT22;30723;51.206;3.326;2022-08-23T12:58:16;33.30;81.30
44990;DHT22;30723;51.206;3.326;2022-08-23T13:00:56;34.30;80.10
44990;DHT22;30723;51.206;3.326;2022-08-23T13:03:43;35.70;77.00
44990;DHT22;30723;51.206;3.326;2022-08-23T13:06:18;37.50;74.10
44990;DHT22;30723;51.206;3.326;2022-08-23T13:08:48;38.80;75.70
44990;DHT22;30723;51.206;3.326;2022-08-23T13:11:19;39.10;66.80
44990;DHT22;30723;51.206;3.326;2022-08-23T13:13:47;37.70;76.80
44990;DHT22;30723;51.206;3.326;2022-08-23T13:16:40;36.50;79.90
44990;DHT22;30723;51.206;3.326;2022-08-23T13:22:08;37.00;79.20
44990;DHT22;30723;51.206;3.326;2022-08-23T13:24:40;36.80;79.60
44990;DHT22;30723;51.206;3.326;2022-08-23T13:29:51;38.30;76.60
44990;DHT22;30723;51.206;3.326;2022-08-23T13:34:53;38.50;73.70
44990;DHT22;30723;51.206;3.326;2022-08-23T13:37:31;38.60;74.50
44990;DHT22;30723;51.206;3.326;2022-08-23T13:40:21;40.40;69.40
44990;DHT22;30723;51.206;3.326;2022-08-23T13:42:54;39.30;70.10
44990;DHT22;30723;51.206;3.326;2022-08-23T13:45:48;38.40;72.40
44990;DHT22;30723;51.206;3.326;2022-08-23T13:48:27;39.30;70.70
44990;DHT22;30723;51.206;3.326;2022-08-23T13:51:15;38.90;71.40
44990;DHT22;30723;51.206;3.326;2022-08-23T13:53:40;39.90;68.50
44990;DHT22;30723;51.206;3.326;2022-08-23T13:56:07;40.30;64.70
44990;DHT22;30723;51.206;3.326;2022-08-23T13:58:34;40.70;62.90
44990;DHT22;30723;51.206;3.326;2022-08-23T14:01:02;39.80;60.00
44990;DHT22;30723;51.206;3.326;2022-08-23T14:03:31;39.00;60.20
44990;DHT22;30723;51.206;3.326;2022-08-23T14:05:58;37.60;62.20
44990;DHT22;30723;51.206;3.326;2022-08-23T14:08:25;36.80;64.30
44990;DHT22;30723;51.206;3.326;2022-08-23T14:10:51;35.50;66.50
44990;DHT22;30723;51.206;3.326;2022-08-23T14:13:28;34.90;68.50
44990;DHT22;30723;51.206;3.326;2022-08-23T14:15:59;34.40;70.10
44990;DHT22;30723;51.206;3.326;2022-08-23T14:18:27;34.10;70.70
44990;DHT22;30723;51.206;3.326;2022-08-23T14:20:53;33.80;70.90
44990;DHT22;30723;51.206;3.326;2022-08-23T14:23:29;33.50;71.60
44990;DHT22;30723;51.206;3.326;2022-08-23T14:25:57;33.50;71.80
44990;DHT22;30723;51.206;3.326;2022-08-23T14:28:27;33.40;71.80
44990;DHT22;30723;51.206;3.326;2022-08-23T14:30:55;33.70;71.40
44990;DHT22;30723;51.206;3.326;2022-08-23T14:33:22;34.90;70.00
44990;DHT22;30723;51.206;3.326;2022-08-23T14:35:49;36.20;66.60
44990;DHT22;30723;51.206;3.326;2022-08-23T14:38:17;36.00;66.10
44990;DHT22;30723;51.206;3.326;2022-08-23T14:40:54;35.80;66.10
44990;DHT22;30723;51.206;3.326;2022-08-23T14:43:23;35.30;67.20
44990;DHT22;30723;51.206;3.326;2022-08-23T14:45:50;35.10;67.00
44990;DHT22;30723;51.206;3.326;2022-08-23T14:48:17;35.70;66.60
44990;DHT22;30723;51.206;3.326;2022-08-23T14:50:44;35.60;65.80
44990;DHT22;30723;51.206;3.326;2022-08-23T14:53:12;34.90;67.50
44990;DHT22;30723;51.206;3.326;2022-08-23T14:55:39;34.40;68.70
44990;DHT22;30723;51.206;3.326;2022-08-23T14:58:07;34.40;69.10
44990;DHT22;30723;51.206;3.326;2022-08-23T15:00:35;34.40;70.70
44990;DHT22;30723;51.206;3.326;2022-08-23T15:03:05;35.50;69.90
44990;DHT22;30723;51.206;3.326;2022-08-23T15:05:32;35.60;66.70
44990;DHT22;30723;51.206;3.326;2022-08-23T15:07:59;35.40;68.30
44990;DHT22;30723;51.206;3.326;2022-08-23T15:10:25;35.50;67.90
44990;DHT22;30723;51.206;3.326;2022-08-23T15:12:52;35.20;74.10
44990;DHT22;30723;51.206;3.326;2022-08-23T15:15:20;33.80;79.60
44990;DHT22;30723;51.206;3.326;2022-08-23T15:17:57;33.60;81.30
44990;DHT22;30723;51.206;3.326;2022-08-23T15:20:30;34.00;81.00
44990;DHT22;30723;51.206;3.326;2022-08-23T15:22:59;33.30;82.00
44990;DHT22;30723;51.206;3.326;2022-08-23T15:25:29;33.00;83.70
44990;DHT22;30723;51.206;3.326;2022-08-23T15:27:56;32.90;84.50
44990;DHT22;30723;51.206;3.326;2022-08-23T15:30:23;33.40;83.70
44990;DHT22;30723;51.206;3.326;2022-08-23T15:32:50;33.70;82.50
44990;DHT22;30723;51.206;3.326;2022-08-23T15:35:17;32.80;84.00
44990;DHT22;30723;51.206;3.326;2022-08-23T15:37:44;33.00;84.90
44990;DHT22;30723;51.206;3.326;2022-08-23T15:40:13;33.90;82.20
44990;DHT22;30723;51.206;3.326;2022-08-23T15:42:39;34.40;81.30
44990;DHT22;30723;51.206;3.326;2022-08-23T15:45:09;34.60;81.00
44990;DHT22;30723;51.206;3.326;2022-08-23T15:47:55;34.80;80.40
44990;DHT22;30723;51.206;3.326;2022-08-23T15:50:25;33.70;81.40
44990;DHT22;30723;51.206;3.326;2022-08-23T15:52:53;32.90;83.50
44990;DHT22;30723;51.206;3.326;2022-08-23T15:55:20;32.10;85.60
44990;DHT22;30723;51.206;3.326;2022-08-23T15:57:50;32.00;86.10
44990;DHT22;30723;51.206;3.326;2022-08-23T16:00:20;31.60;87.10
44990;DHT22;30723;51.206;3.326;2022-08-23T16:02:47;30.90;88.50
44990;DHT22;30723;51.206;3.326;2022-08-23T16:05:14;30.40;90.20
44990;DHT22;30723;51.206;3.326;2022-08-23T16:07:42;29.80;91.30
44990;DHT22;30723;51.206;3.326;2022-08-23T16:10:09;29.50;92.60
44990;DHT22;30723;51.206;3.326;2022-08-23T16:12:39;29.20;92.60
44990;DHT22;30723;51.206;3.326;2022-08-23T16:15:06;28.70;93.80
44990;DHT22;30723;51.206;3.326;2022-08-23T16:17:52;28.50;94.40
44990;DHT22;30723;51.206;3.326;2022-08-23T16:20:19;28.10;95.90
44990;DHT22;30723;51.206;3.326;2022-08-23T16:22:46;28.20;96.80
44990;DHT22;30723;51.206;3.326;2022-08-23T16:25:12;28.10;96.80
44990;DHT22;30723;51.206;3.326;2022-08-23T16:27:39;28.20;97.30
44990;DHT22;30723;51.206;3.326;2022-08-23T16:30:08;28.20;97.60
44990;DHT22;30723;51.206;3.326;2022-08-23T16:32:36;28.10;97.90
44990;DHT22;30723;51.206;3.326;2022-08-23T16:35:03;27.80;99.30
44990;DHT22;30723;51.206;3.326;2022-08-23T16:37:31;27.60;99.60
44990;DHT22;30723;51.206;3.326;2022-08-23T16:39:58;27.50;99.90
44990;DHT22;30723;51.206;3.326;2022-08-23T16:42:25;27.50;99.90
44990;DHT22;30723;51.206;3.326;2022-08-23T16:44:52;27.90;99.90
44990;DHT22;30723;51.206;3.326;2022-08-23T16:47:18;27.80;99.90
44990;DHT22;30723;51.206;3.326;2022-08-23T16:49:45;27.60;99.90
44990;DHT22;30723;51.206;3.326;2022-08-23T16:52:20;27.60;99.90
44990;DHT22;30723;51.206;3.326;2022-08-23T16:54:46;27.60;99.90
44990;DHT22;30723;51.206;3.326;2022-08-23T16:57:13;27.50;99.90
44990;DHT22;30723;51.206;3.326;2022-08-23T16:59:43;27.20;99.90
44990;DHT22;30723;51.206;3.326;2022-08-23T17:02:29;27.20;99.90
44990;DHT22;30723;51.206;3.326;2022-08-23T17:04:57;27.10;99.90
44990;DHT22;30723;51.206;3.326;2022-08-23T17:07:24;26.90;99.90
44990;DHT22;30723;51.206;3.326;2022-08-23T17:09:51;26.80;99.90
44990;DHT22;30723;51.206;3.326;2022-08-23T17:12:19;26.70;99.90
44990;DHT22;30723;51.206;3.326;2022-08-23T17:14:46;26.80;99.90
44990;DHT22;30723;51.206;3.326;2022-08-23T17:17:14;26.60;99.90
44990;DHT22;30723;51.206;3.326;2022-08-23T17:19:42;26.60;99.90
44990;DHT22;30723;51.206;3.326;2022-08-23T17:22:09;26.80;99.90